Time;durP1;ratioP1;P1;durP2;ratioP2;P2;SDS_P1;SDS_P2;PMS_P1;PMS_P2;Temp;Humidity;BMP_temperature;BMP_pressure;BME280_temperature;BME280_humidity;BME280_pressure;Samples;Min_cycle;Max_cycle;Signal;HPM_P1;HPM_P2
2021/10/04 00:00:57;;;;;;;18.30;13.40;;;;;;;13.64;66.95;100286.98;117258;1187;22151;-77
2021/10/04 00:03:27;;;;;;;17.20;11.90;;;;;;;13.60;66.95;100290.04;117073;1187;21911;-77
2021/10/04 00:05:59;;;;;;;12.20;11.00;;;;;;;13.57;67.17;100292.98;116911;1179;21883;-77
2021/10/04 00:08:29;;;;;;;15.60;12.10;;;;;;;13.54;67.28;100294.38;116965;1189;22647;-77
2021/10/04 00:10:59;;;;;;;14.20;11.30;;;;;;;13.52;67.41;100291.45;116689;1187;21881;-77
2021/10/04 00:13:29;;;;;;;12.60;11.30;;;;;;;13.50;67.46;100286.61;116670;1192;21880;-76
2021/10/04 00:15:59;;;;;;;16.50;12.40;;;;;;;13.48;67.44;100288.56;116665;1187;22271;-77
2021/10/04 00:18:28;;;;;;;13.80;12.10;;;;;;;13.45;67.48;100286.80;116418;1192;21890;-76
2021/10/04 00:20:58;;;;;;;13.80;12.30;;;;;;;13.43;67.58;100287.23;116415;1192;21877;-76
2021/10/04 00:23:28;;;;;;;17.10;13.60;;;;;;;13.41;67.70;100290.30;116691;1190;24146;-76
2021/10/04 00:25:58;;;;;;;13.80;12.40;;;;;;;13.42;67.90;100282.98;116818;1190;22696;-76
2021/10/04 00:28:31;;;;;;;16.50;12.90;;;;;;;13.41;67.72;100285.17;116812;1187;24195;-76
2021/10/04 00:31:03;;;;;;;16.30;12.50;;;;;;;13.38;67.84;100282.90;117226;1187;21886;-77
2021/10/04 00:33:33;;;;;;;14.40;12.90;;;;;;;13.34;67.90;100284.21;117146;1187;22134;-77
2021/10/04 00:36:05;;;;;;;18.10;12.30;;;;;;;13.32;67.81;100285.80;117089;1187;22853;-76
2021/10/04 00:38:36;;;;;;;15.20;12.60;;;;;;;13.27;68.07;100285.62;117076;1187;21882;-77
2021/10/04 00:41:06;;;;;;;15.40;12.80;;;;;;;13.24;67.98;100280.20;116961;1188;21879;-77
2021/10/04 00:43:37;;;;;;;;;;;;;;;13.20;68.10;100276.35;117107;1184;21878;-77
2021/10/04 00:46:16;;;;;;;15.80;12.80;;;;;;;13.09;68.21;100278.80;116778;1190;21894;-77
2021/10/04 00:48:47;;;;;;;15.20;13.40;;;;;;;13.05;68.41;100281.08;116684;1192;22919;-77
2021/10/04 00:51:21;;;;;;;14.30;12.00;;;;;;;13.04;68.40;100281.67;116651;1192;22017;-77
2021/10/04 00:53:54;;;;;;;13.70;12.00;;;;;;;13.04;68.49;100287.36;116684;1192;21890;-77
2021/10/04 00:56:25;;;;;;;13.30;12.10;;;;;;;13.02;68.61;100286.34;116711;1192;21889;-77
2021/10/04 00:58:55;;;;;;;16.10;12.70;;;;;;;12.98;68.53;100287.52;116548;1192;21993;-78
2021/10/04 01:01:28;;;;;;;12.50;11.40;;;;;;;12.95;68.66;100289.34;116678;1192;21999;-75
2021/10/04 01:04:00;;;;;;;13.70;12.30;;;;;;;12.93;68.66;100293.98;116757;1188;21869;-76
2021/10/04 01:06:30;;;;;;;14.50;13.00;;;;;;;12.92;68.91;100296.92;116957;1187;21883;-77
2021/10/04 01:09:00;;;;;;;14.80;12.60;;;;;;;12.89;68.88;100295.14;117230;1187;23732;-77
2021/10/04 01:11:32;;;;;;;14.50;13.00;;;;;;;12.86;68.94;100294.30;117069;1187;21886;-77
2021/10/04 01:14:02;;;;;;;16.70;13.30;;;;;;;12.84;69.20;100298.23;117103;1187;21886;-77
2021/10/04 01:16:32;;;;;;;18.50;13.20;;;;;;;12.82;69.09;100298.91;117111;1187;22183;-78
2021/10/04 01:19:03;;;;;;;14.10;12.60;;;;;;;12.78;69.18;100297.40;117199;1187;21930;-77
2021/10/04 01:21:35;;;;;;;14.20;11.80;;;;;;;12.74;69.29;100301.02;117202;1184;23583;-78
2021/10/04 01:24:11;;;;;;;13.60;11.70;;;;;;;12.71;69.30;100302.08;117106;1187;21935;-77
2021/10/04 01:26:41;;;;;;;13.90;12.00;;;;;;;12.70;69.32;100302.23;116836;1187;21897;-77
2021/10/04 01:29:11;;;;;;;12.50;11.30;;;;;;;12.69;69.50;100303.77;116761;1189;22000;-78
2021/10/04 01:31:42;;;;;;;13.20;11.90;;;;;;;12.68;69.49;100305.63;116795;1190;22966;-77
2021/10/04 01:34:12;;;;;;;13.60;12.30;;;;;;;12.67;69.70;100308.52;116739;1190;21895;-78
2021/10/04 01:36:44;;;;;;;13.10;11.60;;;;;;;12.66;69.61;100310.27;116853;1190;21873;-77
2021/10/04 01:39:14;;;;;;;12.90;11.50;;;;;;;12.67;69.81;100309.48;116825;1184;21937;-76
2021/10/04 01:41:54;;;;;;;13.80;11.80;;;;;;;12.68;69.84;100314.11;116850;1189;22929;-76
2021/10/04 01:44:25;;;;;;;14.70;12.30;;;;;;;12.68;69.84;100317.65;116924;1188;22663;-78
2021/10/04 01:46:57;;;;;;;14.80;11.90;;;;;;;12.69;69.90;100316.57;117133;1188;21900;-78
2021/10/04 01:49:35;;;;;;;12.80;11.30;;;;;;;12.72;69.97;100317.88;117128;1188;22862;-77
2021/10/04 01:52:08;;;;;;;13.50;12.30;;;;;;;12.76;69.83;100313.96;117123;1187;21878;-77
2021/10/04 01:54:52;;;;;;;20.10;13.60;;;;;;;12.77;69.74;100313.77;117035;1187;22209;-78
2021/10/04 01:57:22;;;;;;;15.80;13.10;;;;;;;12.78;69.62;100316.85;117124;1188;22510;-77
2021/10/04 01:59:55;;;;;;;13.60;12.20;;;;;;;12.76;69.59;100317.97;117103;1188;24144;-77
2021/10/04 02:02:24;;;;;;;15.60;12.10;;;;;;;12.72;69.63;100319.27;117117;1187;22605;-77
2021/10/04 02:04:57;;;;;;;13.10;11.80;;;;;;;12.70;69.71;100317.58;117120;1187;22033;-78
2021/10/04 02:07:26;;;;;;;13.80;12.30;;;;;;;12.68;69.59;100316.02;117023;1188;21921;-78
2021/10/04 02:09:58;;;;;;;13.30;12.00;;;;;;;12.67;69.70;100318.98;117093;1188;22644;-78
2021/10/04 02:12:30;;;;;;;13.50;12.20;;;;;;;12.67;69.86;100316.51;117138;1188;22616;-78
2021/10/04 02:15:04;;;;;;;14.70;12.60;;;;;;;12.66;69.61;100315.21;117011;1185;23607;-78
2021/10/04 02:17:34;;;;;;;14.90;12.30;;;;;;;12.64;69.78;100320.58;117178;1187;23529;-78
2021/10/04 02:20:15;;;;;;;14.10;12.60;;;;;;;12.63;69.80;100324.27;117125;1188;23416;-78
2021/10/04 02:22:45;;;;;;;14.30;12.80;;;;;;;12.62;69.95;100328.09;117118;1187;22617;-77
2021/10/04 02:25:22;;;;;;;13.80;12.30;;;;;;;12.61;69.98;100329.98;116988;1188;23571;-77
2021/10/04 02:27:54;;;;;;;14.30;12.80;;;;;;;12.58;69.84;100333.33;117050;1188;21879;-76
2021/10/04 02:30:25;;;;;;;14.20;11.40;;;;;;;12.59;70.08;100334.23;117095;1188;21898;-77
2021/10/04 02:33:00;;;;;;;14.60;13.10;;;;;;;12.58;69.94;100334.41;117153;1187;22554;-76
2021/10/04 02:35:33;;;;;;;14.10;12.60;;;;;;;12.56;69.85;100338.18;116981;1184;21880;-76
2021/10/04 02:38:09;;;;;;;14.60;13.10;;;;;;;12.53;69.90;100340.27;117003;1188;21886;-77
2021/10/04 02:40:51;;;;;;;13.90;12.50;;;;;;;12.51;70.01;100340.48;117073;1188;21895;-78
2021/10/04 02:43:24;;;;;;;14.30;12.80;;;;;;;12.50;70.10;100335.13;117150;1184;23996;-78
2021/10/04 02:45:56;;;;;;;13.90;12.60;;;;;;;12.48;69.94;100341.00;117125;1187;23532;-78
2021/10/04 02:48:26;;;;;;;13.10;11.90;;;;;;;12.46;70.12;100347.27;117127;1187;21890;-79
2021/10/04 02:50:56;;;;;;;14.70;13.10;;;;;;;12.45;70.17;100347.02;117162;1187;22082;-78
2021/10/04 02:53:26;;;;;;;13.90;12.50;;;;;;;12.44;70.21;100350.19;117183;1187;23477;-79
2021/10/04 02:55:56;;;;;;;16.50;13.40;;;;;;;12.42;70.34;100352.56;117143;1187;21932;-78
2021/10/04 02:58:25;;;;;;;15.60;13.40;;;;;;;12.39;70.20;100354.67;117116;1187;21890;-77
2021/10/04 03:00:55;;;;;;;14.40;12.80;;;;;;;12.38;70.18;100357.10;117016;1174;23709;-78
2021/10/04 03:03:24;;;;;;;15.50;14.00;;;;;;;12.36;70.18;100353.27;117139;1187;21976;-77
2021/10/04 03:05:54;;;;;;;14.30;12.80;;;;;;;12.34;70.36;100353.45;116992;1188;22001;-77
2021/10/04 03:08:23;;;;;;;13.40;12.10;;;;;;;12.30;70.20;100349.80;116981;1187;21927;-77
2021/10/04 03:10:53;;;;;;;14.40;12.90;;;;;;;12.25;70.29;100349.39;117110;1187;21900;-75
2021/10/04 03:13:22;;;;;;;15.40;13.80;;;;;;;12.20;70.35;100352.91;117064;1184;23616;-77
2021/10/04 03:15:54;;;;;;;14.40;12.90;;;;;;;12.17;70.58;100354.23;116739;1191;23555;-76
2021/10/04 03:18:23;;;;;;;14.40;12.60;;;;;;;12.12;70.31;100347.38;116741;1191;23526;-77
2021/10/04 03:20:53;;;;;;;15.30;13.30;;;;;;;12.01;70.30;100345.77;116703;1191;21939;-78
2021/10/04 03:23:23;;;;;;;15.60;13.90;;;;;;;11.91;70.53;100348.37;116660;1192;22953;-77
2021/10/04 03:25:52;;;;;;;16.90;13.60;;;;;;;11.85;70.93;100352.40;116593;1191;21893;-77
2021/10/04 03:28:22;;;;;;;20.40;15.10;;;;;;;11.85;71.44;100355.38;116694;1192;23442;-77
2021/10/04 03:30:52;;;;;;;16.50;14.80;;;;;;;11.88;71.64;100353.48;116751;1180;21886;-77
2021/10/04 03:33:22;;;;;;;20.40;14.60;;;;;;;11.89;71.54;100348.05;116716;1190;21907;-77
2021/10/04 03:35:51;;;;;;;18.50;14.50;;;;;;;11.88;71.48;100345.54;116673;1191;22016;-77
2021/10/04 03:38:21;;;;;;;15.80;14.30;;;;;;;11.85;71.36;100345.39;116690;1191;23439;-77
2021/10/04 03:40:50;;;;;;;17.80;15.60;;;;;;;11.83;71.59;100345.30;116678;1191;21910;-77
2021/10/04 03:43:20;;;;;;;17.50;15.80;;;;;;;11.83;71.83;100345.98;116522;1192;23938;-77
2021/10/04 03:45:50;;;;;;;18.00;15.70;;;;;;;11.84;71.87;100347.27;116630;1188;21896;-77
2021/10/04 03:48:20;;;;;;;16.40;14.70;;;;;;;11.86;71.84;100348.99;116669;1192;22928;-77
2021/10/04 03:50:50;;;;;;;16.40;14.80;;;;;;;11.86;71.91;100342.41;116557;1190;21891;-77
2021/10/04 03:53:21;;;;;;;17.30;15.50;;;;;;;11.85;71.72;100344.70;116678;1191;21902;-78
2021/10/04 03:55:51;;;;;;;20.80;16.50;;;;;;;11.81;71.62;100352.27;116722;1187;22968;-77
2021/10/04 03:58:20;;;;;;;17.20;15.60;;;;;;;11.74;71.58;100353.58;116686;1187;21882;-78
2021/10/04 04:00:49;;;;;;;21.40;15.30;;;;;;;11.68;71.71;100358.55;116667;1191;21928;-77
2021/10/04 04:03:19;;;;;;;19.60;15.60;;;;;;;11.61;71.85;100364.30;116703;1191;22880;-77
2021/10/04 04:05:48;;;;;;;18.80;15.90;;;;;;;11.56;72.07;100371.19;116775;1188;23045;-77
2021/10/04 04:08:22;;;;;;;20.20;16.90;;;;;;;11.51;72.19;100369.83;116681;1187;21975;-77
2021/10/04 04:10:51;;;;;;;18.50;15.80;;;;;;;11.46;72.24;100370.01;116714;1190;21869;-77
2021/10/04 04:13:20;;;;;;;19.20;15.50;;;;;;;11.43;72.58;100371.82;116762;1189;21910;-78
2021/10/04 04:15:49;;;;;;;18.40;16.50;;;;;;;11.41;72.59;100373.15;116923;1190;21923;-77
2021/10/04 04:18:27;;;;;;;17.30;15.60;;;;;;;11.37;72.71;100370.15;116801;1190;21936;-77
2021/10/04 04:20:56;;;;;;;18.30;16.00;;;;;;;11.35;72.85;100371.80;116908;1187;21875;-78
2021/10/04 04:23:25;;;;;;;18.00;16.20;;;;;;;11.34;72.92;100371.62;116866;1190;21907;-79
2021/10/04 04:25:59;;;;;;;18.40;16.40;;;;;;;11.30;73.15;100369.86;116972;1189;23579;-77
2021/10/04 04:28:29;;;;;;;18.30;16.50;;;;;;;11.29;73.31;100371.04;116528;1191;22020;-76
2021/10/04 04:30:58;;;;;;;20.30;17.50;;;;;;;11.28;73.28;100370.88;116675;1191;23542;-77
2021/10/04 04:33:28;;;;;;;20.20;18.10;;;;;;;11.26;73.28;100374.73;116717;1191;23440;-78
2021/10/04 04:35:57;;;;;;;20.70;17.40;;;;;;;11.23;73.25;100375.39;116718;1191;21941;-77
2021/10/04 04:38:29;;;;;;;21.00;18.30;;;;;;;11.23;73.58;100374.17;116813;1191;21870;-78
2021/10/04 04:41:01;;;;;;;20.80;18.20;;;;;;;11.24;73.61;100375.73;116702;1191;21875;-77
2021/10/04 04:43:33;;;;;;;22.30;19.90;;;;;;;11.23;73.61;100377.58;116741;1190;23436;-77
2021/10/04 04:46:05;;;;;;;26.50;20.40;;;;;;;11.19;73.60;100377.96;116804;1190;23558;-77
2021/10/04 04:48:47;;;;;;;26.60;21.40;;;;;;;11.15;73.64;100373.85;116697;1184;21938;-77
2021/10/04 04:51:27;;;;;;;44.60;27.10;;;;;;;11.15;73.96;100376.89;116863;1190;21887;-77
2021/10/04 04:54:10;;;;;;;42.50;26.50;;;;;;;11.14;73.90;100374.21;117070;1187;23566;-77
2021/10/04 04:56:49;;;;;;;39.80;26.60;;;;;;;11.12;73.74;100377.22;117138;1188;21872;-75
2021/10/04 04:59:24;;;;;;;29.80;24.40;;;;;;;11.13;74.13;100372.04;117127;1187;23543;-77
2021/10/04 05:01:54;;;;;;;29.40;22.10;;;;;;;11.16;74.09;100379.80;117098;1186;23417;-77
2021/10/04 05:04:31;;;;;;;23.20;20.50;;;;;;;11.15;73.86;100388.81;117181;1187;21892;-78
2021/10/04 05:07:06;;;;;;;24.90;20.10;;;;;;;11.13;73.85;100394.91;117171;1187;23454;-77
2021/10/04 05:09:36;;;;;;;25.10;22.50;;;;;;;11.09;73.91;100390.06;117150;1187;21883;-77
2021/10/04 05:12:11;;;;;;;23.40;18.70;;;;;;;11.08;74.01;100389.17;117196;1187;21886;-77
2021/10/04 05:14:43;;;;;;;21.80;19.50;;;;;;;11.04;73.98;100387.27;117029;1188;24143;-77
2021/10/04 05:17:20;;;;;;;21.50;18.80;;;;;;;11.00;74.12;100390.02;117090;1187;23550;-78
2021/10/04 05:19:59;;;;;;;24.30;20.10;;;;;;;10.99;74.38;100393.81;117184;1187;23562;-78
2021/10/04 05:22:35;;;;;;;21.60;19.30;;;;;;;11.03;74.68;100396.92;117135;1185;23434;-79
2021/10/04 05:25:10;;;;;;;21.70;19.50;;;;;;;11.06;74.64;100403.18;116993;1188;21885;-78
2021/10/04 05:27:45;;;;;;;20.20;17.60;;;;;;;11.11;74.73;100410.08;116978;1187;23533;-78
2021/10/04 05:30:15;;;;;;;21.70;18.70;;;;;;;11.16;74.72;100407.31;117110;1187;23627;-78
2021/10/04 05:32:44;;;;;;;24.90;20.60;;;;;;;11.18;74.76;100410.70;116952;1188;21884;-78
2021/10/04 05:35:15;;;;;;;29.90;22.30;;;;;;;11.21;74.69;100412.19;117032;1188;21880;-78
2021/10/04 05:37:45;;;;;;;33.50;24.50;;;;;;;11.21;74.69;100415.46;117149;1187;21869;-78
2021/10/04 05:40:28;;;;;;;31.90;23.10;;;;;;;11.23;74.55;100411.19;117146;1188;23443;-78
2021/10/04 05:43:01;;;;;;;29.40;24.00;;;;;;;11.24;74.62;100413.60;117146;1187;21889;-78
2021/10/04 05:45:31;;;;;;;33.80;24.40;;;;;;;11.28;74.82;100419.30;117021;1187;21879;-78
2021/10/04 05:48:09;;;;;;;31.40;23.30;;;;;;;11.36;74.90;100425.70;117144;1187;21873;-77
2021/10/04 05:50:38;;;;;;;27.20;21.50;;;;;;;11.47;75.00;100429.95;117129;1187;23547;-76
2021/10/04 05:53:09;;;;;;;29.20;22.20;;;;;;;11.58;74.95;100432.95;117082;1187;21873;-77
2021/10/04 05:55:40;;;;;;;28.40;22.50;;;;;;;11.68;75.02;100436.02;117167;1184;21881;-77
2021/10/04 05:58:10;;;;;;;28.10;21.70;;;;;;;11.77;74.81;100427.56;117082;1187;21885;-76
2021/10/04 06:00:41;;;;;;;30.70;24.70;;;;;;;11.83;74.31;100422.31;116965;1187;21892;-76
2021/10/04 06:03:13;;;;;;;33.80;26.60;;;;;;;11.83;73.82;100425.67;117027;1187;22057;-77
2021/10/04 06:05:43;;;;;;;33.20;23.60;;;;;;;11.83;73.76;100424.98;117214;1187;22898;-76
2021/10/04 06:08:16;;;;;;;27.10;21.30;;;;;;;11.85;73.80;100423.51;117293;1187;22838;-77
2021/10/04 06:10:58;;;;;;;25.50;20.50;;;;;;;11.86;73.60;100421.69;117120;1187;21994;-77
2021/10/04 06:13:31;;;;;;;21.60;18.80;;;;;;;11.84;73.48;100420.86;117115;1174;21876;-76
2021/10/04 06:16:01;;;;;;;22.50;20.10;;;;;;;11.83;73.56;100420.40;117023;1187;23664;-76
2021/10/04 06:18:30;;;;;;;22.80;18.10;;;;;;;11.84;73.53;100421.19;117123;1187;21890;-76
2021/10/04 06:21:08;;;;;;;21.40;19.10;;;;;;;11.86;73.71;100420.73;116752;1190;22966;-76
2021/10/04 06:23:42;;;;;;;21.30;19.10;;;;;;;11.93;73.93;100424.72;116872;1189;21891;-77
2021/10/04 06:26:16;;;;;;;22.50;19.70;;;;;;;12.00;73.78;100431.13;116867;1190;21907;-76
2021/10/04 06:28:46;;;;;;;23.00;20.80;;;;;;;12.09;73.81;100436.21;116831;1190;24144;-77
2021/10/04 06:31:17;;;;;;;24.40;19.60;;;;;;;12.18;73.93;100438.14;116920;1188;22933;-76
2021/10/04 06:33:51;;;;;;;21.70;19.50;;;;;;;12.30;74.01;100441.83;116869;1189;21890;-76
2021/10/04 06:36:29;;;;;;;22.50;19.60;;;;;;;12.44;73.98;100443.61;117108;1189;21886;-77
2021/10/04 06:39:27;;;;;;;25.50;20.10;;;;;;;12.59;73.76;100447.90;117157;1187;21887;-75
2021/10/04 06:42:12;;;;;;;22.20;19.70;;;;;;;12.72;73.49;100449.18;117386;1187;22048;-76
2021/10/04 06:44:43;;;;;;;23.40;19.50;;;;;;;12.84;73.22;100451.86;117190;1187;22880;-77
2021/10/04 06:47:16;;;;;;;22.50;20.00;;;;;;;12.98;73.08;100453.21;117176;1187;21984;-75
2021/10/04 06:49:46;;;;;;;23.90;21.30;;;;;;;13.15;72.91;100451.25;117169;1184;21863;-75
2021/10/04 06:52:16;;;;;;;22.00;19.70;;;;;;;13.32;72.79;100451.48;117254;1176;22903;-77
2021/10/04 06:54:46;;;;;;;24.50;22.20;;;;;;;13.52;72.71;100452.05;117041;1176;23002;-76
2021/10/04 06:57:16;;;;;;;22.10;19.80;;;;;;;13.76;72.58;100451.35;117150;1187;21882;-78
2021/10/04 06:59:46;;;;;;;22.20;19.50;;;;;;;14.07;72.83;100450.19;116842;1190;21959;-78
2021/10/04 07:02:16;;;;;;;25.30;22.80;;;;;;;14.47;72.68;100452.89;116803;1190;21880;-78
2021/10/04 07:04:47;;;;;;;25.10;22.50;;;;;;;14.90;71.94;100456.54;116832;1190;21881;-78
2021/10/04 07:07:18;;;;;;;;;;;;;;;15.29;70.87;100464.70;116907;1190;22635;-79
2021/10/04 07:09:48;;;;;;;24.10;19.70;;;;;;;15.59;69.77;100469.66;117033;1190;24149;-78
2021/10/04 07:12:21;;;;;;;24.40;18.40;;;;;;;15.92;68.91;100472.86;117017;1190;23526;-79
2021/10/04 07:14:56;;;;;;;21.30;17.80;;;;;;;16.33;68.52;100469.31;116834;1184;21879;-79
2021/10/04 07:17:34;;;;;;;20.90;18.80;;;;;;;16.76;67.24;100467.06;117015;1188;21939;-78
2021/10/04 07:20:06;;;;;;;21.50;18.40;;;;;;;17.15;65.70;100462.73;117158;1186;21939;-79
2021/10/04 07:22:40;;;;;;;18.60;16.70;;;;;;;17.46;64.21;100456.34;117178;1187;23000;-78
2021/10/04 07:25:15;;;;;;;18.00;15.90;;;;;;;17.74;63.09;100456.77;116964;1190;21880;-79
2021/10/04 07:27:48;;;;;;;17.80;16.00;;;;;;;17.93;61.84;100453.10;116836;1191;21934;-79
2021/10/04 07:30:24;;;;;;;18.20;16.40;;;;;;;18.14;61.22;100452.77;116594;1193;21903;-78
2021/10/04 07:32:55;;;;;;;19.00;15.30;;;;;;;18.42;60.92;100456.25;116757;1192;21875;-78
2021/10/04 07:35:31;;;;;;;18.20;16.40;;;;;;;18.62;59.56;100462.43;116564;1192;21921;-78
2021/10/04 07:38:04;;;;;;;19.10;15.20;;;;;;;18.90;59.96;100466.51;116945;1192;21956;-78
2021/10/04 07:40:37;;;;;;;20.70;16.40;;;;;;;19.27;59.65;100470.83;116667;1192;22734;-79
2021/10/04 07:43:07;;;;;;;19.50;13.80;;;;;;;19.56;58.26;100476.12;116585;1190;21940;-79
2021/10/04 07:45:42;;;;;;;16.00;14.30;;;;;;;19.74;56.83;100474.36;116954;1190;24288;-78
2021/10/04 07:48:13;;;;;;;16.50;14.00;;;;;;;19.93;56.54;100470.48;117202;1188;23457;-79
2021/10/04 07:50:47;;;;;;;21.70;18.50;;;;;;;20.17;56.02;100476.56;117124;1187;21900;-78
2021/10/04 07:53:18;;;;;;;18.80;15.00;;;;;;;20.35;55.06;100480.39;117162;1187;21877;-79
2021/10/04 07:55:58;;;;;;;30.20;23.30;;;;;;;20.56;55.21;100480.63;117063;1187;22622;-78
2021/10/04 07:58:28;;;;;;;42.50;17.90;;;;;;;20.67;53.77;100480.50;117140;1187;22828;-78
2021/10/04 08:00:58;;;;;;;17.10;15.40;;;;;;;20.66;53.11;100477.50;117198;1187;21887;-79
2021/10/04 08:03:31;;;;;;;19.50;15.00;;;;;;;20.74;53.08;100480.88;117032;1184;21875;-78
2021/10/04 08:06:01;;;;;;;16.60;13.50;;;;;;;20.72;52.17;100482.00;116728;1191;21912;-79
2021/10/04 08:08:33;;;;;;;23.70;18.70;;;;;;;20.62;52.04;100484.22;116800;1191;23445;-78
2021/10/04 08:11:09;;;;;;;16.80;14.50;;;;;;;20.54;52.73;100493.43;116753;1187;21877;-79
2021/10/04 08:13:45;;;;;;;18.40;14.50;;;;;;;20.66;52.90;100490.71;116736;1187;22886;-79
2021/10/04 08:16:16;;;;;;;16.10;13.90;;;;;;;20.76;52.55;100486.89;116734;1187;22190;-79
2021/10/04 08:18:48;;;;;;;20.00;15.10;;;;;;;20.89;52.56;100488.33;116735;1191;22968;-80
2021/10/04 08:21:21;;;;;;;16.80;14.60;;;;;;;20.94;51.82;100487.67;116777;1191;23875;-78
2021/10/04 08:23:59;;;;;;;17.50;14.90;;;;;;;21.03;52.65;100488.74;116882;1187;22845;-78
2021/10/04 08:26:31;;;;;;;18.30;14.40;;;;;;;21.21;52.14;100495.33;117131;1187;22212;-79
2021/10/04 08:29:01;;;;;;;16.90;14.00;;;;;;;21.28;51.48;100494.05;117007;1187;21930;-77
2021/10/04 08:31:34;;;;;;;15.00;13.00;;;;;;;21.35;51.63;100490.84;117084;1184;21895;-79
2021/10/04 08:34:06;;;;;;;17.00;13.80;;;;;;;21.47;51.32;100495.63;117049;1187;22502;-79
2021/10/04 08:36:36;;;;;;;19.10;14.70;;;;;;;21.49;50.41;100498.77;117147;1187;22853;-79
2021/10/04 08:39:23;;;;;;;16.50;13.80;;;;;;;21.47;50.85;100497.42;117206;1184;22004;-79
2021/10/04 08:41:54;;;;;;;19.90;15.00;;;;;;;21.54;50.57;100494.73;117181;1184;22953;-79
2021/10/04 08:44:26;;;;;;;19.00;14.20;;;;;;;21.53;50.40;100495.09;117215;1187;22912;-79
2021/10/04 08:46:56;;;;;;;16.60;13.20;;;;;;;21.59;51.06;100494.02;117295;1187;23471;-80
2021/10/04 08:49:34;;;;;;;18.10;14.80;;;;;;;21.69;50.96;100494.08;117129;1187;21880;-79
2021/10/04 08:52:06;;;;;;;19.10;13.30;;;;;;;21.81;50.76;100492.59;117131;1187;21886;-79
2021/10/04 08:54:46;;;;;;;15.60;13.40;;;;;;;21.88;50.12;100490.64;117222;1186;21887;-79
2021/10/04 08:57:16;;;;;;;18.80;14.30;;;;;;;21.89;50.03;100494.91;117253;1187;21991;-79
2021/10/04 08:59:45;;;;;;;16.90;15.20;;;;;;;21.91;50.00;100500.00;117133;1187;22984;-79
2021/10/04 09:02:33;;;;;;;16.70;14.30;;;;;;;21.98;50.33;100502.30;117230;1187;21882;-80
2021/10/04 09:05:13;;;;;;;16.90;14.80;;;;;;;22.06;49.82;100501.38;117060;1187;22847;-79
2021/10/04 09:08:12;;;;;;;15.70;13.80;;;;;;;22.11;49.83;100500.77;117147;1187;23608;-79
2021/10/04 09:10:49;;;;;;;16.80;14.30;;;;;;;22.25;49.91;100502.98;117117;1187;22690;-79
2021/10/04 09:13:19;;;;;;;17.80;15.70;;;;;;;22.35;49.76;100507.77;117087;1187;21884;-79
2021/10/04 09:15:51;;;;;;;19.60;16.10;;;;;;;22.48;49.35;100507.83;117141;1187;22920;-78
2021/10/04 09:18:26;;;;;;;20.60;14.20;;;;;;;22.57;49.09;100502.48;117207;1187;21865;-81
2021/10/04 09:21:09;;;;;;;23.20;15.50;;;;;;;22.61;48.47;100501.85;116702;1190;21890;-78
2021/10/04 09:23:56;;;;;;;16.40;14.70;;;;;;;22.57;48.13;100495.54;116886;1190;23001;-80
2021/10/04 09:26:30;;;;;;;27.00;24.00;;;;;;;22.61;48.63;100491.02;116840;1190;23735;-79
2021/10/04 09:29:10;;;;;;;16.40;14.80;;;;;;;22.84;48.71;100488.02;116864;1190;22909;-80
2021/10/04 09:31:44;;;;;;;14.80;13.40;;;;;;;23.01;47.15;100490.71;116851;1190;21871;-79
2021/10/04 09:34:27;;;;;;;16.50;15.00;;;;;;;22.95;46.52;100496.13;116855;1190;21956;-79
2021/10/04 09:36:59;;;;;;;15.00;13.60;;;;;;;22.84;47.10;100501.85;116752;1182;23006;-79
2021/10/04 09:39:36;;;;;;;15.50;14.00;;;;;;;22.83;47.04;100501.41;116832;1189;22251;-79
2021/10/04 09:42:21;;;;;;;18.70;15.30;;;;;;;22.89;47.29;100499.61;116880;1189;22646;-79
2021/10/04 09:45:00;;;;;;;19.90;15.20;;;;;;;22.90;46.94;100497.69;116782;1190;22910;-80
2021/10/04 09:47:38;;;;;;;16.40;14.80;;;;;;;22.89;46.94;100499.52;116844;1190;21924;-79
2021/10/04 09:50:15;;;;;;;15.50;14.00;;;;;;;23.01;47.76;100508.88;116830;1189;22942;-79
2021/10/04 09:53:02;;;;;;;15.40;13.90;;;;;;;23.13;47.08;100513.15;116919;1190;22927;-79
2021/10/04 09:55:43;;;;;;;20.50;14.90;;;;;;;23.30;47.24;100506.55;116786;1189;21905;-80
2021/10/04 09:58:31;;;;;;;46.80;19.40;;;;;;;23.57;47.15;100504.55;116721;1191;22948;-79
2021/10/04 10:01:05;;;;;;;23.70;15.40;;;;;;;23.80;46.31;100510.09;116721;1192;22916;-79
2021/10/04 10:03:45;;;;;;;15.60;13.90;;;;;;;24.02;45.86;100505.11;116431;1192;22861;-80
2021/10/04 10:06:21;;;;;;;17.90;14.70;;;;;;;24.29;45.57;100503.84;116683;1192;23560;-79
2021/10/04 10:08:51;;;;;;;15.10;13.60;;;;;;;24.43;44.19;100508.59;116760;1192;22898;-79
2021/10/04 10:11:24;;;;;;;16.20;14.40;;;;;;;24.44;43.87;100507.26;116754;1192;21886;-80
2021/10/04 10:13:54;;;;;;;19.00;13.30;;;;;;;24.59;43.58;100510.67;116726;1190;21866;-79
2021/10/04 10:16:41;;;;;;;13.80;12.30;;;;;;;24.75;43.62;100512.82;116678;1190;22903;-80
2021/10/04 10:19:18;;;;;;;13.90;12.60;;;;;;;24.89;42.92;100511.79;117007;1188;21879;-81
2021/10/04 10:21:50;;;;;;;15.40;13.80;;;;;;;25.01;43.07;100513.83;117079;1187;23467;-80
2021/10/04 10:24:30;;;;;;;16.50;14.20;;;;;;;25.21;42.54;100516.52;117064;1188;21960;-80
2021/10/04 10:27:03;;;;;;;17.40;11.90;;;;;;;25.45;42.27;100514.55;116857;1190;21865;-80
2021/10/04 10:29:35;;;;;;;12.60;11.40;;;;;;;25.56;41.44;100512.34;116805;1190;22846;-80
2021/10/04 10:32:14;;;;;;;14.00;12.60;;;;;;;25.71;42.02;100515.66;116814;1190;23685;-80
2021/10/04 10:34:52;;;;;;;14.90;11.50;;;;;;;26.03;41.70;100513.64;116868;1186;22908;-80
2021/10/04 10:37:29;;;;;;;12.80;11.70;;;;;;;26.34;41.22;100511.16;117015;1189;22915;-80
2021/10/04 10:40:12;;;;;;;14.80;12.50;;;;;;;26.67;40.14;100513.30;116886;1190;23611;-80
2021/10/04 10:43:10;;;;;;;19.00;13.10;;;;;;;26.77;39.21;100514.23;116756;1190;22867;-80
2021/10/04 10:45:50;;;;;;;14.00;12.60;;;;;;;26.78;39.03;100510.73;117076;1188;21907;-79
2021/10/04 10:48:40;;;;;;;13.80;12.40;;;;;;;26.89;39.35;100512.93;117099;1188;21910;-79
2021/10/04 10:51:10;;;;;;;14.10;12.80;;;;;;;26.92;38.70;100514.88;117045;1187;23445;-78
2021/10/04 10:53:39;;;;;;;14.30;11.70;;;;;;;26.81;38.05;100518.19;117074;1187;21900;-78
2021/10/04 10:56:09;;;;;;;13.90;12.60;;;;;;;26.59;38.34;100517.65;117010;1187;21917;-77
2021/10/04 10:58:38;;;;;;;14.80;12.20;;;;;;;26.40;38.62;100517.99;117091;1184;21901;-78
2021/10/04 11:01:17;;;;;;;14.70;12.90;;;;;;;26.16;38.47;100521.13;117157;1187;23123;-78
2021/10/04 11:03:54;;;;;;;14.80;13.30;;;;;;;25.84;39.08;100528.82;117100;1188;21874;-78
2021/10/04 11:06:43;;;;;;;15.80;14.20;;;;;;;25.53;39.47;100530.66;117100;1188;21872;-78
2021/10/04 11:09:14;;;;;;;20.00;15.40;;;;;;;25.21;39.80;100530.14;117188;1187;23475;-77
2021/10/04 11:11:56;;;;;;;19.30;16.00;;;;;;;24.92;40.70;100533.75;117042;1187;21902;-80
2021/10/04 11:14:55;;;;;;;19.00;15.70;;;;;;;24.67;41.27;100525.88;117107;1184;21902;-80
2021/10/04 11:17:56;;;;;;;18.30;16.30;;;;;;;24.34;41.75;100523.33;117184;1187;23460;-79
2021/10/04 11:20:31;;;;;;;22.70;15.90;;;;;;;24.03;42.60;100521.73;117107;1187;24133;-80
2021/10/04 11:23:09;;;;;;;19.40;16.50;;;;;;;23.87;43.38;100518.71;117249;1187;24219;-79
2021/10/04 11:25:54;;;;;;;34.20;22.70;;;;;;;23.77;43.79;100514.81;117201;1187;22635;-79
2021/10/04 11:28:30;;;;;;;25.40;22.90;;;;;;;23.66;44.18;100513.91;117174;1187;21881;-80
2021/10/04 11:31:17;;;;;;;24.60;22.00;;;;;;;23.57;44.03;100517.00;117303;1187;21874;-80